Time;durP1;ratioP1;P1;durP2;ratioP2;P2;SDS_P1;SDS_P2;PMS_P1;PMS_P2;Temp;Humidity;BMP_temperature;BMP_pressure;BME280_temperature;BME280_humidity;BME280_pressure;Samples;Min_cycle;Max_cycle;Signal;HPM_P1;HPM_P2
2022/03/08 00:00:27;;;;;;;11.30;5.70;;;1.00;62.80;;;;;;5064508;28;19905;-81
2022/03/08 00:02:57;;;;;;;12.48;5.93;;;0.90;63.10;;;;;;5069585;28;20019;-80
2022/03/08 00:05:23;;;;;;;29.77;10.55;;;0.90;63.40;;;;;;5070282;28;20044;-80
2022/03/08 00:07:49;;;;;;;;;;;0.80;63.80;;;;;;5072688;28;20037;-80
2022/03/08 00:10:16;;;;;;;20.55;9.80;;;0.70;64.60;;;;;;5071924;28;19909;-80
2022/03/08 00:12:42;;;;;;;15.45;8.20;;;0.60;65.40;;;;;;5071043;28;20055;-80
2022/03/08 00:15:13;;;;;;;16.45;8.43;;;0.40;66.20;;;;;;5069973;28;20036;-80
2022/03/08 00:17:39;;;;;;;14.85;6.90;;;0.30;67.40;;;;;;5069874;28;20055;-80
2022/03/08 00:20:06;;;;;;;;;;;0.10;68.60;;;;;;5069976;28;20037;-80
2022/03/08 00:22:33;;;;;;;17.90;8.75;;;0.00;69.50;;;;;;5069428;28;19905;-79
2022/03/08 00:25:01;;;;;;;18.58;8.82;;;-0.10;70.30;;;;;;5069005;28;20481;-79
2022/03/08 00:27:28;;;;;;;20.55;9.30;;;-0.20;70.80;;;;;;5067900;28;20067;-80
2022/03/08 00:29:53;;;;;;;17.63;9.43;;;-0.30;71.60;;;;;;5070763;28;20048;-81
2022/03/08 00:32:19;;;;;;;;;;;-0.40;72.20;;;;;;5612747;22;20061;-79
2022/03/08 00:34:45;;;;;;;19.33;9.75;;;-0.40;73.20;;;;;;5031260;28;19993;-78
2022/03/08 00:37:11;;;;;;;;;;;-0.50;73.90;;;;;;5028439;28;20124;-80
2022/03/08 00:39:37;;;;;;;18.55;8.55;;;-0.60;75.00;;;;;;5024956;28;19905;-79
2022/03/08 00:42:02;;;;;;;;;;;-0.60;75.80;;;;;;5026783;28;20030;-80
2022/03/08 00:44:28;;;;;;;19.50;8.02;;;-0.60;76.60;;;;;;5030011;28;19906;-80
2022/03/08 00:46:54;;;;;;;;;;;-0.60;76.80;;;;;;5035144;28;20025;-81
2022/03/08 00:49:19;;;;;;;15.80;8.63;;;-0.60;76.70;;;;;;5029578;28;20291;-80
2022/03/08 00:51:45;;;;;;;;;;;-0.60;76.50;;;;;;5024567;28;20029;-80
2022/03/08 00:54:11;;;;;;;16.65;8.98;;;-0.60;77.10;;;;;;5023461;28;19932;-80
2022/03/08 00:56:37;;;;;;;;;;;-0.70;77.30;;;;;;5022630;28;20396;-80
2022/03/08 00:59:03;;;;;;;14.68;7.68;;;-0.70;78.30;;;;;;5020503;28;19917;-79
2022/03/08 01:01:28;;;;;;;;;;;-0.70;77.60;;;;;;5020452;28;20032;-80
2022/03/08 01:03:54;;;;;;;21.83;8.50;;;-0.70;78.50;;;;;;5024830;28;19997;-80
2022/03/08 01:06:20;;;;;;;;;;;-0.80;78.30;;;;;;5028765;28;20026;-80
2022/03/08 01:08:45;;;;;;;17.50;9.02;;;-0.80;79.20;;;;;;5028073;28;19909;-80
2022/03/08 01:11:11;;;;;;;;;;;-0.90;79.60;;;;;;5027904;28;20033;-80
2022/03/08 01:13:37;;;;;;;18.50;10.13;;;-1.10;81.10;;;;;;5027961;28;19905;-80
2022/03/08 01:16:03;;;;;;;;;;;-1.10;81.80;;;;;;5044676;28;20025;-80
2022/03/08 01:18:29;;;;;;;16.08;9.00;;;-1.20;81.90;;;;;;5028188;28;19914;-79
2022/03/08 01:20:54;;;;;;;;;;;-1.30;82.90;;;;;;5027299;28;20449;-80
2022/03/08 01:23:20;;;;;;;16.98;8.73;;;-1.30;83.70;;;;;;5026744;28;19905;-79
2022/03/08 01:25:46;;;;;;;;;;;-1.40;84.80;;;;;;5033377;28;20041;-78
2022/03/08 01:28:12;;;;;;;18.20;8.18;;;-1.40;86.10;;;;;;5032141;28;19889;-80
2022/03/08 01:30:38;;;;;;;;;;;-1.40;85.90;;;;;;5041323;28;20032;-81
2022/03/08 01:33:04;;;;;;;18.05;9.00;;;-1.50;87.90;;;;;;5051550;28;19917;-80
2022/03/08 01:35:30;;;;;;;23.63;10.25;;;-1.50;90.00;;;;;;5074473;28;20010;-79
2022/03/08 01:37:55;;;;;;;;;;;-1.60;89.20;;;;;;5068510;28;20033;-79
2022/03/08 01:40:21;;;;;;;20.48;10.10;;;-1.60;89.50;;;;;;5044269;28;19939;-79
2022/03/08 01:42:48;;;;;;;;;;;-1.70;90.00;;;;;;5038221;28;20031;-77
2022/03/08 01:45:16;;;;;;;20.70;9.98;;;-1.70;90.90;;;;;;5032146;28;19964;-78
2022/03/08 01:47:42;;;;;;;24.42;10.13;;;-1.80;91.00;;;;;;5039798;28;20069;-79
2022/03/08 01:50:09;;;;;;;;;;;-1.90;91.10;;;;;;5065112;28;20033;-79
2022/03/08 01:52:34;;;;;;;22.88;10.63;;;-1.90;91.90;;;;;;5045065;28;19912;-79
2022/03/08 01:55:00;;;;;;;;;;;-2.00;92.40;;;;;;5040620;28;20498;-80
2022/03/08 01:57:26;;;;;;;17.65;8.98;;;-2.10;92.90;;;;;;5044750;28;19939;-79
2022/03/08 01:59:52;;;;;;;;;;;-2.10;92.80;;;;;;5038082;28;20030;-78
2022/03/08 02:02:18;;;;;;;18.80;9.88;;;-2.20;93.70;;;;;;5033900;28;19909;-78
2022/03/08 02:04:45;;;;;;;28.60;13.73;;;-2.20;94.40;;;;;;5034227;28;20064;-78
2022/03/08 02:07:11;;;;;;;20.40;9.95;;;-2.10;94.10;;;;;;5052109;28;20024;-79
2022/03/08 02:09:36;;;;;;;;;;;-2.20;93.90;;;;;;5055058;28;20037;-78
2022/03/08 02:12:03;;;;;;;16.80;8.88;;;-2.20;94.30;;;;;;5038136;28;19905;-79
2022/03/08 02:14:29;;;;;;;24.10;10.85;;;-2.30;94.50;;;;;;5053533;28;20580;-79
2022/03/08 02:16:55;;;;;;;;;;;-2.30;95.00;;;;;;5053390;28;20064;-79
2022/03/08 02:19:20;;;;;;;17.63;8.65;;;-2.40;95.90;;;;;;5037402;28;20444;-79
2022/03/08 02:21:49;;;;;;;;;;;-2.30;96.30;;;;;;5037174;28;20827;-79
2022/03/08 02:24:14;;;;;;;19.58;8.30;;;-2.40;97.10;;;;;;5036564;28;19905;-79
2022/03/08 02:26:40;;;;;;;;;;;-2.30;98.60;;;;;;5053069;28;20482;-79
2022/03/08 02:29:08;;;;;;;24.85;12.23;;;-2.20;98.50;;;;;;5038038;28;19909;-79
2022/03/08 02:31:35;;;;;;;27.20;11.32;;;-2.30;97.90;;;;;;5038308;28;20021;-79
2022/03/08 02:34:01;;;;;;;19.83;10.65;;;-2.30;98.20;;;;;;5072340;28;20050;-79
2022/03/08 02:36:27;;;;;;;28.70;10.43;;;-2.30;98.90;;;;;;5038759;28;20031;-79
2022/03/08 02:38:53;;;;;;;18.33;8.75;;;-2.30;99.90;;;;;;5055330;28;20029;-80
2022/03/08 02:41:18;;;;;;;;;;;-2.30;99.90;;;;;;5042416;28;20605;-80
2022/03/08 02:43:44;;;;;;;29.05;11.70;;;-2.30;99.90;;;;;;5040351;28;19916;-80
2022/03/08 02:46:10;;;;;;;;;;;-2.30;99.90;;;;;;5056505;28;20033;-80
2022/03/08 02:48:36;;;;;;;17.33;8.98;;;-2.30;99.90;;;;;;5045279;28;19896;-77
2022/03/08 02:51:05;;;;;;;;;;;-2.40;99.90;;;;;;5051439;28;20040;-80
2022/03/08 02:53:31;;;;;;;18.77;8.88;;;-2.30;99.90;;;;;;5035502;28;19991;-78
2022/03/08 02:55:57;;;;;;;22.90;9.70;;;-2.30;99.90;;;;;;5050055;28;20170;-79
2022/03/08 02:58:24;;;;;;;23.08;10.80;;;-2.20;99.90;;;;;;5036797;28;20037;-79
2022/03/08 03:00:50;;;;;;;20.83;9.80;;;-2.00;99.90;;;;;;5048182;28;20024;-79
2022/03/08 03:03:15;;;;;;;;;;;-2.00;99.90;;;;;;5048242;28;20077;-80
2022/03/08 03:05:41;;;;;;;21.35;9.65;;;-2.10;99.90;;;;;;5041431;28;19928;-80
2022/03/08 03:08:07;;;;;;;;;;;-2.00;99.90;;;;;;5058600;28;20030;-80
2022/03/08 03:10:33;;;;;;;20.83;8.02;;;-2.20;99.90;;;;;;5040828;28;19905;-78
2022/03/08 03:12:59;;;;;;;;;;;-2.20;99.90;;;;;;5036027;28;20026;-79
2022/03/08 03:15:26;;;;;;;28.77;11.32;;;-2.30;99.90;;;;;;5038254;28;19905;-79
2022/03/08 03:17:52;;;;;;;20.55;8.98;;;-2.30;99.90;;;;;;5044612;28;20465;-80
2022/03/08 03:20:19;;;;;;;;;;;-2.30;99.90;;;;;;5043622;28;20021;-80
2022/03/08 03:22:46;;;;;;;20.08;9.05;;;-2.20;99.90;;;;;;5050945;28;19911;-80
2022/03/08 03:25:12;;;;;;;18.42;8.55;;;-2.20;99.90;;;;;;5070694;28;20057;-79
2022/03/08 03:27:39;;;;;;;16.20;6.88;;;-2.20;99.90;;;;;;5059858;28;20033;-80
2022/03/08 03:30:07;;;;;;;16.52;7.30;;;-2.10;99.90;;;;;;5044917;28;20084;-80
2022/03/08 03:32:33;;;;;;;14.27;6.55;;;-2.00;99.90;;;;;;5063891;28;20060;-79
2022/03/08 03:34:58;;;;;;;;;;;-2.00;99.90;;;;;;5033530;28;20083;-79
2022/03/08 03:37:24;;;;;;;14.90;6.43;;;-1.80;99.90;;;;;;5038326;28;19913;-80
2022/03/08 03:39:50;;;;;;;;;;;-1.80;99.90;;;;;;5065174;28;20013;-80
2022/03/08 03:42:16;;;;;;;11.85;6.28;;;-1.80;99.90;;;;;;5050776;28;19905;-80
2022/03/08 03:44:41;;;;;;;;;;;-1.70;99.90;;;;;;5048129;28;20022;-80
2022/03/08 03:47:07;;;;;;;14.27;6.43;;;-1.60;99.90;;;;;;5038559;28;20282;-79
2022/03/08 03:49:33;;;;;;;;;;;-1.60;99.90;;;;;;5053538;28;20077;-78
2022/03/08 03:51:59;;;;;;;10.00;4.80;;;-1.50;99.90;;;;;;5037855;28;19905;-79
2022/03/08 03:54:24;;;;;;;;;;;-1.50;99.90;;;;;;5058379;28;20481;-79
2022/03/08 03:56:50;;;;;;;9.57;3.78;;;-1.40;99.90;;;;;;5045117;28;19951;-80
2022/03/08 03:59:16;;;;;;;;;;;-1.40;99.90;;;;;;5063036;28;20061;-81
2022/03/08 04:01:42;;;;;;;9.50;4.80;;;-1.40;99.90;;;;;;5045360;28;19955;-79
2022/03/08 04:04:08;;;;;;;15.57;7.05;;;-1.10;99.90;;;;;;5046690;28;20486;-80
2022/03/08 04:06:34;;;;;;;;;;;-1.20;99.90;;;;;;5062959;28;20033;-80
2022/03/08 04:09:01;;;;;;;13.50;6.80;;;-1.30;99.90;;;;;;5062526;28;20689;-80
2022/03/08 04:11:26;;;;;;;15.10;7.22;;;-1.30;99.90;;;;;;5047854;28;20287;-79
2022/03/08 04:13:52;;;;;;;;;;;-1.30;99.90;;;;;;5062653;28;20022;-79
2022/03/08 04:16:18;;;;;;;14.18;5.40;;;-1.30;99.90;;;;;;5044849;28;19908;-79
2022/03/08 04:18:43;;;;;;;;;;;-1.30;99.90;;;;;;5062805;28;20057;-80
2022/03/08 04:21:09;;;;;;;13.80;6.30;;;-1.20;99.90;;;;;;5047247;28;19911;-80
2022/03/08 04:23:35;;;;;;;;;;;-1.20;99.90;;;;;;5049295;28;20041;-80
2022/03/08 04:26:01;;;;;;;12.90;5.97;;;-1.20;99.90;;;;;;5046491;28;20327;-79
2022/03/08 04:28:26;;;;;;;;;;;-1.20;99.90;;;;;;5064142;28;20037;-80
2022/03/08 04:30:52;;;;;;;13.85;6.82;;;-1.30;99.90;;;;;;5046261;28;19911;-80
2022/03/08 04:33:18;;;;;;;;;;;-1.30;99.90;;;;;;5061490;28;20055;-79
2022/03/08 04:35:43;;;;;;;14.70;6.68;;;-1.30;99.90;;;;;;5042407;28;19905;-79
2022/03/08 04:38:09;;;;;;;;;;;-1.40;99.90;;;;;;5058359;28;20529;-79
2022/03/08 04:40:35;;;;;;;15.40;6.20;;;-1.40;99.90;;;;;;5033201;28;19999;-78
2022/03/08 04:43:00;;;;;;;;;;;-1.40;99.90;;;;;;5033375;28;20029;-79
2022/03/08 04:45:26;;;;;;;17.48;8.40;;;-1.40;99.90;;;;;;5031970;28;19916;-79
2022/03/08 04:47:52;;;;;;;;;;;-1.40;99.90;;;;;;5048830;28;20571;-78
2022/03/08 04:50:18;;;;;;;26.27;12.45;;;-1.40;99.90;;;;;;5033426;28;20389;-80
2022/03/08 04:52:45;;;;;;;25.35;12.98;;;-1.50;99.90;;;;;;5055545;28;20243;-79
2022/03/08 04:55:12;;;;;;;21.73;11.95;;;-1.60;99.90;;;;;;5044578;28;20025;-80
2022/03/08 04:57:38;;;;;;;22.40;12.27;;;-1.60;99.90;;;;;;5047999;28;20061;-78
2022/03/08 05:00:04;;;;;;;;;;;-1.50;99.90;;;;;;5041784;28;20037;-79
2022/03/08 05:02:30;;;;;;;32.40;15.15;;;-1.50;99.90;;;;;;5039000;28;19984;-79
2022/03/08 05:04:56;;;;;;;;;;;-1.50;99.90;;;;;;5045941;28;20034;-78
2022/03/08 05:07:22;;;;;;;26.50;13.63;;;-1.50;99.90;;;;;;5030135;28;20409;-78
2022/03/08 05:09:48;;;;;;;31.77;13.27;;;-1.50;99.90;;;;;;5045504;28;20051;-78
2022/03/08 05:12:13;;;;;;;;;;;-1.50;99.90;;;;;;5045608;28;20112;-79
2022/03/08 05:14:39;;;;;;;40.80;15.70;;;-1.50;99.90;;;;;;5033276;28;19912;-79
2022/03/08 05:17:05;;;;;;;;;;;-1.50;99.90;;;;;;5033203;28;20026;-80
2022/03/08 05:19:30;;;;;;;35.63;15.32;;;-1.50;99.90;;;;;;5033274;28;19916;-79
2022/03/08 05:21:56;;;;;;;;;;;-1.50;99.90;;;;;;5050211;28;20036;-80
2022/03/08 05:24:21;;;;;;;42.38;17.77;;;-1.50;99.90;;;;;;5034418;28;19940;-79
2022/03/08 05:26:47;;;;;;;;;;;-1.50;99.90;;;;;;5050437;28;20014;-80
2022/03/08 05:29:13;;;;;;;39.17;16.20;;;-1.40;99.90;;;;;;5050895;28;20281;-79
2022/03/08 05:31:38;;;;;;;;;;;-1.30;99.90;;;;;;5034611;28;20068;-79
2022/03/08 05:34:04;;;;;;;32.95;12.90;;;-1.30;99.90;;;;;;5032998;28;19920;-79
2022/03/08 05:36:29;;;;;;;;;;;-1.20;99.90;;;;;;5051721;28;20057;-79
2022/03/08 05:38:55;;;;;;;31.02;11.35;;;-1.30;99.90;;;;;;5034542;28;19913;-79
2022/03/08 05:41:21;;;;;;;;;;;-1.20;99.90;;;;;;5034776;28;20056;-79
2022/03/08 05:43:47;;;;;;;13.80;6.53;;;-1.00;99.90;;;;;;5035421;28;19909;-80
2022/03/08 05:46:12;;;;;;;;;;;-0.70;99.90;;;;;;5055384;28;20033;-79
2022/03/08 05:48:38;;;;;;;14.13;6.55;;;-0.30;99.90;;;;;;5039760;28;19909;-79
2022/03/08 05:51:04;;;;;;;;;;;0.10;99.90;;;;;;5050263;28;20033;-78
2022/03/08 05:53:29;;;;;;;13.93;5.63;;;0.50;99.90;;;;;;5035953;28;19909;-79
2022/03/08 05:55:55;;;;;;;;;;;0.70;98.60;;;;;;5053190;28;20048;-79
2022/03/08 05:58:21;;;;;;;9.70;5.20;;;1.00;96.70;;;;;;5048678;28;19943;-79
2022/03/08 06:00:46;;;;;;;19.02;6.72;;;1.20;95.80;;;;;;5049721;28;20034;-78
2022/03/08 06:03:12;;;;;;;;;;;1.30;95.00;;;;;;5051293;28;20032;-79
2022/03/08 06:05:38;;;;;;;13.23;7.68;;;1.50;93.40;;;;;;5035486;28;20345;-79
2022/03/08 06:08:04;;;;;;;;;;;1.80;92.80;;;;;;5033731;28;20390;-78
2022/03/08 06:10:29;;;;;;;25.00;11.75;;;2.00;91.40;;;;;;5035148;28;19905;-79
2022/03/08 06:12:55;;;;;;;15.55;7.82;;;2.30;88.10;;;;;;5036654;28;20026;-78
2022/03/08 06:15:21;;;;;;;27.98;12.23;;;2.50;84.20;;;;;;5036906;28;20026;-79
2022/03/08 06:17:47;;;;;;;30.60;12.93;;;2.60;82.90;;;;;;5044252;28;20169;-78
2022/03/08 06:20:12;;;;;;;27.67;12.05;;;2.60;81.40;;;;;;5047398;28;20553;-80
2022/03/08 06:22:38;;;;;;;;;;;2.60;81.50;;;;;;5053224;28;20059;-79
2022/03/08 06:25:05;;;;;;;20.83;8.70;;;2.60;81.40;;;;;;5038833;28;19908;-78
2022/03/08 06:27:30;;;;;;;66.22;25.83;;;2.50;81.20;;;;;;5034216;28;20367;-77
2022/03/08 06:29:56;;;;;;;;;;;2.50;80.30;;;;;;5035630;28;20513;-78
2022/03/08 06:32:21;;;;;;;112.43;45.45;;;2.60;79.20;;;;;;5034020;28;19917;-78
2022/03/08 06:34:50;;;;;;;89.35;33.80;;;2.60;79.40;;;;;;5034665;28;20672;-78
2022/03/08 06:37:16;;;;;;;47.22;21.35;;;2.70;78.90;;;;;;5035612;28;20029;-78
2022/03/08 06:39:41;;;;;;;;;;;2.70;78.80;;;;;;5051782;28;20041;-78
2022/03/08 06:42:07;;;;;;;37.55;16.52;;;2.80;78.80;;;;;;5034980;28;20285;-79
2022/03/08 06:44:33;;;;;;;;;;;2.80;78.20;;;;;;5035587;28;20029;-79
2022/03/08 06:46:59;;;;;;;39.15;13.82;;;2.90;77.00;;;;;;5033902;28;19911;-78
2022/03/08 06:49:25;;;;;;;48.60;18.42;;;3.00;76.60;;;;;;5036976;28;20022;-78
2022/03/08 06:51:50;;;;;;;55.17;16.45;;;3.10;76.50;;;;;;5035187;28;20041;-79
2022/03/08 06:54:16;;;;;;;28.13;9.75;;;3.30;75.50;;;;;;5049676;28;20022;-78
2022/03/08 06:56:42;;;;;;;28.42;11.98;;;3.50;73.50;;;;;;5051891;28;20041;-79
2022/03/08 07:02:30;;;;;;;16.92;7.75;;;4.10;69.40;;;;;;5044971;28;20056;-80
2022/03/08 07:04:55;;;;;;;21.55;9.95;;;4.80;66.60;;;;;;5053319;28;20014;-80
2022/03/08 07:07:21;;;;;;;;;;;5.90;61.40;;;;;;5053581;28;20109;-80
2022/03/08 07:09:47;;;;;;;19.23;10.75;;;6.80;57.50;;;;;;5033623;28;19916;-85
2022/03/08 07:12:12;;;;;;;;;;;7.80;54.90;;;;;;5047410;28;20029;-81
2022/03/08 07:14:38;;;;;;;9.07;4.72;;;8.90;49.40;;;;;;5030466;28;20282;-86
2022/03/08 07:17:04;;;;;;;10.52;5.22;;;9.50;45.90;;;;;;5045792;28;20506;-85
2022/03/08 07:19:30;;;;;;;11.20;6.18;;;10.10;44.10;;;;;;5046390;28;20060;-81
2022/03/08 07:21:55;;;;;;;;;;;10.40;41.70;;;;;;5030849;28;20036;-84
2022/03/08 07:24:21;;;;;;;9.77;5.13;;;10.50;40.20;;;;;;5047570;28;19912;-86
2022/03/08 07:26:46;;;;;;;;;;;10.40;39.90;;;;;;5032497;28;20039;-82
2022/03/08 07:29:12;;;;;;;9.88;4.93;;;10.70;39.60;;;;;;5030969;28;19905;-81
2022/03/08 07:31:37;;;;;;;;;;;11.00;38.40;;;;;;5031439;28;20034;-81
2022/03/08 07:34:03;;;;;;;8.65;4.90;;;11.10;38.30;;;;;;5045975;28;19921;-81
2022/03/08 07:36:29;;;;;;;;;;;11.30;37.50;;;;;;5046358;28;20037;-83
2022/03/08 07:38:55;;;;;;;8.18;5.00;;;11.60;36.10;;;;;;5030310;28;19964;-81
2022/03/08 07:41:21;;;;;;;;;;;11.70;36.20;;;;;;5046097;28;20029;-81
2022/03/08 07:43:47;;;;;;;9.48;5.30;;;12.20;34.40;;;;;;5028873;28;20403;-83
2022/03/08 07:46:14;;;;;;;;;;;12.20;34.60;;;;;;5045633;28;20513;-83
2022/03/08 07:48:40;;;;;;;14.93;6.90;;;11.90;34.60;;;;;;5047682;28;19909;-84
2022/03/08 07:51:06;;;;;;;;;;;11.90;35.30;;;;;;5045658;28;20030;-83
2022/03/08 07:53:31;;;;;;;19.45;9.68;;;12.30;34.00;;;;;;5029662;28;19951;-82
2022/03/08 07:55:57;;;;;;;;;;;12.10;33.80;;;;;;5045933;28;20026;-80
2022/03/08 07:58:23;;;;;;;10.75;6.53;;;12.30;33.50;;;;;;5029964;28;20377;-83
2022/03/08 08:00:48;;;;;;;;;;;12.40;33.30;;;;;;5030344;28;20639;-85
2022/03/08 08:03:14;;;;;;;12.30;7.32;;;12.00;33.10;;;;;;5031737;28;19909;-83
2022/03/08 08:05:39;;;;;;;;;;;11.90;33.50;;;;;;5045720;28;20103;-83
2022/03/08 08:08:06;;;;;;;9.98;5.72;;;12.40;33.40;;;;;;5028613;28;19916;-86
2022/03/08 08:10:33;;;;;;;8.13;4.88;;;12.60;31.80;;;;;;5045436;28;20128;-84
2022/03/08 08:12:59;;;;;;;9.25;5.70;;;11.80;32.90;;;;;;5045570;28;20113;-84
2022/03/08 08:15:24;;;;;;;;;;;10.90;34.60;;;;;;5030542;28;20042;-84
2022/03/08 08:17:50;;;;;;;10.27;5.82;;;10.00;36.20;;;;;;5035962;28;19936;-79
2022/03/08 08:20:16;;;;;;;10.45;5.78;;;9.20;37.40;;;;;;5053593;28;20033;-79
2022/03/08 08:22:41;;;;;;;;;;;8.90;38.80;;;;;;5040867;28;20018;-79
2022/03/08 08:25:08;;;;;;;10.35;5.82;;;8.40;39.80;;;;;;5038268;28;19912;-80
2022/03/08 08:27:34;;;;;;;10.63;5.60;;;8.10;40.20;;;;;;5054716;28;20025;-79
2022/03/08 08:29:59;;;;;;;9.77;5.80;;;7.70;41.10;;;;;;5052815;28;20037;-79
2022/03/08 08:32:25;;;;;;;;;;;7.40;41.80;;;;;;5038326;28;20076;-79
2022/03/08 08:34:51;;;;;;;13.65;5.88;;;7.20;42.50;;;;;;5051378;28;19932;-79
2022/03/08 08:37:17;;;;;;;13.93;6.00;;;7.10;42.80;;;;;;5047552;28;20021;-79
2022/03/08 08:39:42;;;;;;;;;;;6.90;43.70;;;;;;5036981;28;20486;-78
2022/03/08 08:42:09;;;;;;;13.98;6.07;;;7.00;44.00;;;;;;5037430;28;19913;-78
2022/03/08 08:44:34;;;;;;;12.23;6.65;;;7.30;43.70;;;;;;5036736;28;20037;-79
2022/03/08 08:47:01;;;;;;;10.80;6.50;;;7.60;43.00;;;;;;5038822;28;20036;-80
2022/03/08 08:49:27;;;;;;;9.88;5.57;;;7.50;43.00;;;;;;5052148;28;20565;-79
2022/03/08 08:51:53;;;;;;;;;;;7.70;42.40;;;;;;5037206;28;20548;-79
2022/03/08 08:54:19;;;;;;;15.60;6.35;;;7.60;42.60;;;;;;5035630;28;19917;-79
2022/03/08 08:56:44;;;;;;;;;;;7.60;42.20;;;;;;5037167;28;20076;-79
2022/03/08 08:59:10;;;;;;;14.27;7.07;;;7.60;42.50;;;;;;5035024;28;19913;-79
2022/03/08 09:01:36;;;;;;;;;;;7.50;42.70;;;;;;5049014;28;20051;-79
2022/03/08 09:04:01;;;;;;;35.85;8.40;;;7.20;43.30;;;;;;5032952;28;19972;-78
2022/03/08 09:06:27;;;;;;;14.05;6.72;;;7.20;43.60;;;;;;5034818;28;20101;-79
2022/03/08 09:08:54;;;;;;;12.30;6.65;;;7.80;43.10;;;;;;5047943;28;20026;-81
2022/03/08 09:11:20;;;;;;;8.32;4.60;;;8.60;41.70;;;;;;5044423;28;20604;-80
2022/03/08 09:13:46;;;;;;;8.45;4.75;;;9.90;38.20;;;;;;5033409;28;20072;-81
2022/03/08 09:16:14;;;;;;;;;;;10.20;36.40;;;;;;5044939;28;20597;-80
2022/03/08 09:18:41;;;;;;;9.18;5.60;;;10.50;36.70;;;;;;5027386;28;19960;-82
2022/03/08 09:21:06;;;;;;;11.10;5.35;;;10.80;35.50;;;;;;5043597;28;20029;-81
2022/03/08 09:23:32;;;;;;;;;;;11.40;34.20;;;;;;5044253;28;20033;-80
2022/03/08 09:25:58;;;;;;;11.77;5.07;;;12.10;33.00;;;;;;5028744;28;19912;-80
2022/03/08 09:28:23;;;;;;;;;;;12.70;30.90;;;;;;5044548;28;20112;-83
2022/03/08 09:30:49;;;;;;;10.15;5.25;;;12.20;31.60;;;;;;5028640;28;19905;-81
2022/03/08 09:33:15;;;;;;;;;;;12.30;31.40;;;;;;5028700;28;20128;-82
2022/03/08 09:35:40;;;;;;;7.35;4.85;;;12.40;31.60;;;;;;5026737;28;20632;-81
2022/03/08 09:38:06;;;;;;;;;;;12.90;30.40;;;;;;5043559;28;20030;-82
2022/03/08 09:40:32;;;;;;;8.20;4.30;;;13.20;29.40;;;;;;5026667;28;20374;-81
2022/03/08 09:42:58;;;;;;;8.20;4.15;;;13.00;29.60;;;;;;5028186;28;20037;-80
2022/03/08 09:45:24;;;;;;;;;;;13.40;28.90;;;;;;5046351;28;20143;-82
2022/03/08 09:47:50;;;;;;;8.75;4.88;;;13.10;28.60;;;;;;5031827;28;19988;-81
2022/03/08 09:50:16;;;;;;;;;;;12.30;29.50;;;;;;5048042;28;20110;-82
2022/03/08 09:52:42;;;;;;;6.72;3.67;;;12.60;29.90;;;;;;5030645;28;19960;-81
2022/03/08 09:55:12;;;;;;;8.30;4.68;;;12.80;28.80;;;;;;5047124;28;20052;-80
2022/03/08 09:57:38;;;;;;;9.82;5.05;;;12.60;28.90;;;;;;5031684;28;20482;-80
2022/03/08 10:00:04;;;;;;;;;;;12.90;29.40;;;;;;5047223;28;20055;-80
2022/03/08 10:02:47;;;;;;;9.25;5.50;;;13.50;28.00;;;;;;5031360;28;19917;-81
2022/03/08 10:05:13;;;;;;;30.90;16.10;;;14.20;27.30;;;;;;5047074;28;20242;-81
2022/03/08 10:07:39;;;;;;;5.32;3.58;;;13.40;27.00;;;;;;5047259;28;20092;-81
2022/03/08 10:10:05;;;;;;;;;;;12.60;27.10;;;;;;5032168;28;20434;-81
2022/03/08 10:12:31;;;;;;;10.27;6.18;;;11.90;28.00;;;;;;5034550;28;20250;-78
2022/03/08 10:14:58;;;;;;;7.90;3.92;;;10.80;28.50;;;;;;5033895;28;20017;-79
2022/03/08 10:17:34;;;;;;;10.77;4.47;;;10.10;29.80;;;;;;5050133;28;20038;-78
2022/03/08 10:20:00;;;;;;;;;;;9.90;31.20;;;;;;5052213;28;20036;-78
2022/03/08 10:22:31;;;;;;;10.27;5.32;;;10.50;30.20;;;;;;5034621;28;19905;-79
2022/03/08 10:25:11;;;;;;;8.15;3.83;;;10.80;29.70;;;;;;5052584;28;20028;-79
2022/03/08 10:27:40;;;;;;;11.82;6.20;;;11.20;29.20;;;;;;5036527;28;20494;-80
2022/03/08 10:30:12;;;;;;;6.38;3.67;;;10.60;29.50;;;;;;5052216;28;20561;-79
2022/03/08 10:32:38;;;;;;;7.25;3.63;;;9.80;30.30;;;;;;5061129;28;20059;-79
2022/03/08 10:35:04;;;;;;;;;;;9.70;31.30;;;;;;5060306;28;20092;-79
2022/03/08 10:37:38;;;;;;;9.68;4.10;;;9.60;31.10;;;;;;5042509;28;19913;-80
2022/03/08 10:40:09;;;;;;;9.60;4.50;;;9.90;31.80;;;;;;5059285;28;20034;-80
2022/03/08 10:42:40;;;;;;;8.95;4.63;;;10.30;30.60;;;;;;5039433;28;20379;-79
2022/03/08 10:45:10;;;;;;;9.98;4.93;;;10.00;30.50;;;;;;5036834;28;20101;-79
2022/03/08 10:47:44;;;;;;;8.75;4.45;;;9.90;31.50;;;;;;5054613;28;20042;-79
2022/03/08 10:50:12;;;;;;;11.07;3.80;;;10.00;30.70;;;;;;5037400;28;20039;-79
2022/03/08 10:52:43;;;;;;;12.45;4.35;;;10.00;30.90;;;;;;5054728;28;20488;-79
2022/03/08 10:55:09;;;;;;;7.57;4.47;;;9.80;30.80;;;;;;5038453;28;20033;-78
2022/03/08 10:57:35;;;;;;;;;;;9.60;31.00;;;;;;5038559;28;20076;-79
2022/03/08 11:00:00;;;;;;;7.50;3.88;;;9.60;31.40;;;;;;5037449;28;19905;-79
2022/03/08 11:02:26;;;;;;;7.25;3.58;;;9.40;31.50;;;;;;5055729;28;20040;-79
2022/03/08 11:05:09;;;;;;;;;;;9.40;31.70;;;;;;5056005;28;20517;-79
2022/03/08 11:07:36;;;;;;;8.77;3.72;;;9.30;30.90;;;;;;5043947;28;20278;-80
2022/03/08 11:10:08;;;;;;;11.00;3.40;;;9.20;31.00;;;;;;5060185;28;20048;-79
2022/03/08 11:12:34;;;;;;;5.97;2.78;;;9.00;30.70;;;;;;5049379;28;20022;-79
2022/03/08 11:15:01;;;;;;;;;;;8.80;30.50;;;;;;5064811;28;20025;-79
2022/03/08 11:17:28;;;;;;;6.50;2.78;;;8.70;31.20;;;;;;5044768;28;19913;-80
2022/03/08 11:19:56;;;;;;;7.57;3.90;;;8.80;30.60;;;;;;5057932;28;20033;-80
2022/03/08 11:22:22;;;;;;;6.82;3.13;;;8.90;31.00;;;;;;5043609;28;20018;-79
2022/03/08 11:24:49;;;;;;;7.63;3.55;;;8.80;30.90;;;;;;5060379;28;20025;-78
2022/03/08 11:27:16;;;;;;;8.63;4.05;;;8.70;31.00;;;;;;5060658;28;20025;-79
2022/03/08 11:29:42;;;;;;;7.60;3.53;;;8.90;31.30;;;;;;5045154;28;20128;-80
2022/03/08 11:32:49;;;;;;;9.57;3.83;;;9.10;30.40;;;;;;5060021;28;20030;-78
2022/03/08 11:35:30;;;;;;;7.30;3.13;;;9.10;30.60;;;;;;5008497;28;20509;-79
2022/03/08 11:37:56;;;;;;;4.88;3.08;;;9.10;30.70;;;;;;5046881;28;20064;-79
2022/03/08 11:40:23;;;;;;;12.02;4.90;;;9.00;30.90;;;;;;5060405;28;20025;-79
2022/03/08 11:42:53;;;;;;;14.07;6.32;;;9.10;30.80;;;;;;5046161;28;20053;-80
2022/03/08 11:45:25;;;;;;;8.85;3.65;;;9.20;31.00;;;;;;5045563;28;20021;-79
2022/03/08 11:47:57;;;;;;;14.43;4.93;;;9.40;30.70;;;;;;5057800;28;20033;-79
2022/03/08 11:50:27;;;;;;;7.88;4.00;;;9.30;30.30;;;;;;5057303;28;20030;-79
2022/03/08 11:53:05;;;;;;;12.98;4.25;;;9.00;31.50;;;;;;5045671;28;20056;-80
2022/03/08 11:55:33;;;;;;;6.35;3.42;;;9.20;32.10;;;;;;5057132;28;20032;-80
2022/03/08 11:58:07;;;;;;;14.55;3.85;;;9.30;31.00;;;;;;5058259;28;20025;-80
2022/03/08 12:00:33;;;;;;;6.50;3.30;;;9.00;30.70;;;;;;5057808;28;20037;-79
2022/03/08 12:03:02;;;;;;;9.77;4.82;;;8.70;31.60;;;;;;5058138;28;20092;-79
2022/03/08 12:06:20;;;;;;;7.47;4.03;;;8.70;32.20;;;;;;5056022;28;20037;-80
2022/03/08 12:08:47;;;;;;;7.43;3.85;;;8.80;32.10;;;;;;4959668;28;20661;-79
2022/03/08 12:11:34;;;;;;;5.43;2.75;;;8.80;31.40;;;;;;5022557;28;20034;-80
2022/03/08 12:14:30;;;;;;;6.43;3.20;;;9.20;30.00;;;;;;5041198;28;20049;-79
2022/03/08 12:17:14;;;;;;;6.82;3.25;;;9.00;30.20;;;;;;5058093;28;20033;-79
2022/03/08 12:19:54;;;;;;;8.07;3.35;;;8.70;31.00;;;;;;5041896;28;20037;-79
2022/03/08 12:22:25;;;;;;;14.15;4.90;;;8.50;31.10;;;;;;5041170;28;20685;-79
2022/03/08 12:24:55;;;;;;;9.00;3.55;;;8.60;32.20;;;;;;5043488;28;20030;-79
2022/03/08 12:27:22;;;;;;;8.27;3.88;;;8.70;32.30;;;;;;5058390;28;20032;-80
2022/03/08 12:30:14;;;;;;;10.38;4.45;;;8.80;31.30;;;;;;5053707;28;20168;-78
2022/03/08 12:32:42;;;;;;;8.13;3.03;;;8.80;31.50;;;;;;5025770;28;20053;-77
2022/03/08 12:35:22;;;;;;;12.00;2.85;;;8.80;29.70;;;;;;5047346;28;20025;-78
2022/03/08 12:37:56;;;;;;;9.23;4.32;;;8.60;29.70;;;;;;5046909;28;20897;-78
2022/03/08 12:40:28;;;;;;;4.88;2.50;;;8.60;30.50;;;;;;5031490;28;20022;-78
2022/03/08 12:42:58;;;;;;;7.55;3.40;;;8.60;30.00;;;;;;5030837;28;20041;-77
2022/03/08 12:45:28;;;;;;;4.72;2.60;;;8.60;30.00;;;;;;5032084;28;20026;-79
2022/03/08 12:47:58;;;;;;;12.27;2.97;;;8.60;29.50;;;;;;5046817;28;20041;-78
2022/03/08 12:50:30;;;;;;;8.60;3.55;;;8.60;29.90;;;;;;5033210;28;20045;-78
2022/03/08 12:53:01;;;;;;;6.63;3.10;;;8.40;29.90;;;;;;5047893;28;20049;-78
2022/03/08 12:55:37;;;;;;;7.28;2.67;;;8.40;30.00;;;;;;5049680;28;20486;-79
2022/03/08 12:58:09;;;;;;;12.25;5.20;;;8.40;30.80;;;;;;5051443;28;20045;-78
2022/03/08 13:00:43;;;;;;;7.82;3.53;;;8.60;30.70;;;;;;5050320;28;20037;-79
2022/03/08 13:03:23;;;;;;;10.10;4.63;;;8.50;30.30;;;;;;5035863;28;20022;-79
2022/03/08 13:05:55;;;;;;;8.43;4.32;;;8.40;30.00;;;;;;5049402;28;20026;-79
2022/03/08 13:08:22;;;;;;;7.78;3.00;;;8.40;30.10;;;;;;5034528;28;20086;-79
2022/03/08 13:10:51;;;;;;;8.38;2.80;;;8.50;29.50;;;;;;5034241;28;20390;-79
2022/03/08 13:13:17;;;;;;;8.93;2.70;;;8.60;30.10;;;;;;5034722;28;20040;-79